sensor_id;sensor_type;location;lat;lon;timestamp;pressure;altitude;pressure_sealevel;temperature;humidity
12897;BME280;6516;35.028;32.372;2022-08-04T00:01:28;99193.06;;;26.14;79.96
12897;BME280;6516;35.028;32.372;2022-08-04T00:04:02;99194.09;;;26.04;78.90
12897;BME280;6516;35.028;32.372;2022-08-04T00:06:40;99209.91;;;25.89;79.23
12897;BME280;6516;35.028;32.372;2022-08-04T00:09:23;99202.84;;;25.69;79.72
12897;BME280;6516;35.028;32.372;2022-08-04T00:12:00;99195.66;;;25.51;80.52
12897;BME280;6516;35.028;32.372;2022-08-04T00:14:29;99209.41;;;25.38;80.74
12897;BME280;6516;35.028;32.372;2022-08-04T00:17:05;99202.72;;;25.23;81.29
12897;BME280;6516;35.028;32.372;2022-08-04T00:19:39;99197.75;;;25.57;81.53
12897;BME280;6516;35.028;32.372;2022-08-04T00:22:10;99205.34;;;25.99;79.12
12897;BME280;6516;35.028;32.372;2022-08-04T00:24:38;99207.06;;;26.00;78.59
12897;BME280;6516;35.028;32.372;2022-08-04T00:27:06;99204.94;;;25.85;79.21
12897;BME280;6516;35.028;32.372;2022-08-04T00:29:37;99200.28;;;25.68;79.72
12897;BME280;6516;35.028;32.372;2022-08-04T00:32:08;99199.75;;;25.55;80.50
12897;BME280;6516;35.028;32.372;2022-08-04T00:34:36;99202.44;;;25.45;81.05
12897;BME280;6516;35.028;32.372;2022-08-04T00:37:05;99202.75;;;25.33;81.59
12897;BME280;6516;35.028;32.372;2022-08-04T00:39:33;99202.72;;;25.23;82.33
12897;BME280;6516;35.028;32.372;2022-08-04T00:42:18;99204.56;;;25.13;82.58
12897;BME280;6516;35.028;32.372;2022-08-04T00:45:22;99200.19;;;25.50;82.98
12897;BME280;6516;35.028;32.372;2022-08-04T00:48:15;99198.16;;;25.71;81.61
12897;BME280;6516;35.028;32.372;2022-08-04T00:50:51;99199.03;;;25.62;81.58
12897;BME280;6516;35.028;32.372;2022-08-04T00:53:30;99202.59;;;25.53;81.63
12897;BME280;6516;35.028;32.372;2022-08-04T00:56:36;99199.06;;;25.43;81.96
12897;BME280;6516;35.028;32.372;2022-08-04T00:59:20;99205.31;;;25.34;82.45
12897;BME280;6516;35.028;32.372;2022-08-04T01:01:59;99206.13;;;25.25;82.96
12897;BME280;6516;35.028;32.372;2022-08-04T01:04:41;99194.47;;;25.15;83.72
12897;BME280;6516;35.028;32.372;2022-08-04T01:07:34;99206.44;;;25.41;84.61
12897;BME280;6516;35.028;32.372;2022-08-04T01:10:09;99205.38;;;25.71;83.28
12897;BME280;6516;35.028;32.372;2022-08-04T01:13:03;99202.84;;;25.69;81.79
12897;BME280;6516;35.028;32.372;2022-08-04T01:15:44;99195.19;;;25.55;82.20
12897;BME280;6516;35.028;32.372;2022-08-04T01:18:20;99205.28;;;25.44;82.42
12897;BME280;6516;35.028;32.372;2022-08-04T01:21:05;99206.88;;;25.27;82.41
12897;BME280;6516;35.028;32.372;2022-08-04T01:24:23;99203.56;;;25.14;82.44
12897;BME280;6516;35.028;32.372;2022-08-04T01:27:00;99208.38;;;25.01;82.50
12897;BME280;6516;35.028;32.372;2022-08-04T01:29:33;99200.31;;;24.92;83.40
12897;BME280;6516;35.028;32.372;2022-08-04T01:32:04;99213.59;;;24.84;83.77
12897;BME280;6516;35.028;32.372;2022-08-04T01:34:35;99209.69;;;25.16;84.31
12897;BME280;6516;35.028;32.372;2022-08-04T01:37:13;99206.13;;;25.63;82.35
12897;BME280;6516;35.028;32.372;2022-08-04T01:39:50;99208.53;;;25.57;81.28
12897;BME280;6516;35.028;32.372;2022-08-04T01:42:28;99210.97;;;25.31;81.98
12897;BME280;6516;35.028;32.372;2022-08-04T01:45:03;99215.75;;;25.09;82.66
12897;BME280;6516;35.028;32.372;2022-08-04T01:47:35;99206.25;;;24.95;82.43
12897;BME280;6516;35.028;32.372;2022-08-04T01:50:05;99211.78;;;24.84;82.81
12897;BME280;6516;35.028;32.372;2022-08-04T01:52:36;99219.56;;;24.78;83.11
12897;BME280;6516;35.028;32.372;2022-08-04T01:55:07;99214.84;;;24.70;83.55
12897;BME280;6516;35.028;32.372;2022-08-04T01:57:40;99220.53;;;24.67;83.98
12897;BME280;6516;35.028;32.372;2022-08-04T02:00:12;99224.47;;;24.63;84.11
12897;BME280;6516;35.028;32.372;2022-08-04T02:02:43;99213.34;;;25.15;82.65
12897;BME280;6516;35.028;32.372;2022-08-04T02:05:14;99214.63;;;25.78;79.16
12897;BME280;6516;35.028;32.372;2022-08-04T02:07:53;99209.25;;;25.49;79.35
12897;BME280;6516;35.028;32.372;2022-08-04T02:13:22;99211.63;;;24.95;81.50
12897;BME280;6516;35.028;32.372;2022-08-04T02:16:01;99227.59;;;24.68;82.34
12897;BME280;6516;35.028;32.372;2022-08-04T02:18:32;99219.56;;;24.48;83.60
12897;BME280;6516;35.028;32.372;2022-08-04T02:21:07;99216.25;;;24.35;83.57
12897;BME280;6516;35.028;32.372;2022-08-04T02:23:40;99212.56;;;24.26;83.79
12897;BME280;6516;35.028;32.372;2022-08-04T02:26:12;99214.06;;;24.19;83.28
12897;BME280;6516;35.028;32.372;2022-08-04T02:28:46;99213.03;;;24.41;83.50
12897;BME280;6516;35.028;32.372;2022-08-04T02:31:26;99207.25;;;24.94;80.68
12897;BME280;6516;35.028;32.372;2022-08-04T02:34:05;99208.25;;;25.12;78.19
12897;BME280;6516;35.028;32.372;2022-08-04T02:36:37;99210.06;;;24.93;79.06
12897;BME280;6516;35.028;32.372;2022-08-04T02:39:07;99216.69;;;24.79;79.55
12897;BME280;6516;35.028;32.372;2022-08-04T02:41:37;99214.00;;;24.70;79.75
12897;BME280;6516;35.028;32.372;2022-08-04T02:44:07;99212.97;;;24.61;80.01
12897;BME280;6516;35.028;32.372;2022-08-04T02:46:38;99213.94;;;24.51;80.28
12897;BME280;6516;35.028;32.372;2022-08-04T02:49:08;99221.41;;;24.47;80.38
12897;BME280;6516;35.028;32.372;2022-08-04T02:51:40;99218.56;;;24.39;80.90
12897;BME280;6516;35.028;32.372;2022-08-04T02:54:10;99213.81;;;25.39;77.28
12897;BME280;6516;35.028;32.372;2022-08-04T02:56:40;99214.53;;;26.06;74.28
12897;BME280;6516;35.028;32.372;2022-08-04T02:59:12;99217.31;;;25.68;75.30
12897;BME280;6516;35.028;32.372;2022-08-04T03:01:42;99208.41;;;25.49;76.20
12897;BME280;6516;35.028;32.372;2022-08-04T03:04:21;99218.88;;;25.23;77.95
12897;BME280;6516;35.028;32.372;2022-08-04T03:07:15;99218.16;;;25.02;79.06
12897;BME280;6516;35.028;32.372;2022-08-04T03:10:18;99224.81;;;24.89;79.92
12897;BME280;6516;35.028;32.372;2022-08-04T03:16:50;99223.16;;;25.54;80.48
12897;BME280;6516;35.028;32.372;2022-08-04T03:20:11;99219.75;;;25.62;79.77
12897;BME280;6516;35.028;32.372;2022-08-04T03:26:45;99227.28;;;25.39;81.76
12897;BME280;6516;35.028;32.372;2022-08-04T03:29:58;99229.13;;;25.29;82.26
12897;BME280;6516;35.028;32.372;2022-08-04T03:32:56;99230.66;;;25.22;83.73
12897;BME280;6516;35.028;32.372;2022-08-04T03:39:44;99217.69;;;26.02;82.17
12897;BME280;6516;35.028;32.372;2022-08-04T03:43:09;99210.03;;;25.97;81.90
12897;BME280;6516;35.028;32.372;2022-08-04T03:49:51;99213.44;;;25.90;82.78
12897;BME280;6516;35.028;32.372;2022-08-04T03:52:54;99224.22;;;25.90;83.30
12897;BME280;6516;35.028;32.372;2022-08-04T03:55:48;99223.41;;;25.89;83.21
12897;BME280;6516;35.028;32.372;2022-08-04T03:58:51;99230.47;;;25.90;83.66
12897;BME280;6516;35.028;32.372;2022-08-04T04:01:42;99234.63;;;25.94;83.75
12897;BME280;6516;35.028;32.372;2022-08-04T04:04:57;99227.63;;;26.01;84.02
12897;BME280;6516;35.028;32.372;2022-08-04T04:07:58;99232.28;;;26.09;83.77
12897;BME280;6516;35.028;32.372;2022-08-04T04:14:18;99226.84;;;26.28;83.82
12897;BME280;6516;35.028;32.372;2022-08-04T04:17:08;99232.03;;;26.39;83.49
12897;BME280;6516;35.028;32.372;2022-08-04T04:20:32;99236.94;;;26.53;83.31
12897;BME280;6516;35.028;32.372;2022-08-04T04:23:30;99229.63;;;26.72;82.91
12897;BME280;6516;35.028;32.372;2022-08-04T04:26:28;99235.09;;;27.08;82.41
12897;BME280;6516;35.028;32.372;2022-08-04T04:32:23;99236.28;;;28.26;77.38
12897;BME280;6516;35.028;32.372;2022-08-04T04:35:09;99231.81;;;28.68;75.18
12897;BME280;6516;35.028;32.372;2022-08-04T04:38:06;99234.81;;;28.99;73.22
12897;BME280;6516;35.028;32.372;2022-08-04T04:41:03;99237.06;;;29.19;73.21
12897;BME280;6516;35.028;32.372;2022-08-04T04:43:57;99234.53;;;29.26;72.72
12897;BME280;6516;35.028;32.372;2022-08-04T04:46:47;99236.09;;;29.36;72.34
12897;BME280;6516;35.028;32.372;2022-08-04T04:49:27;99239.97;;;29.50;71.33
12897;BME280;6516;35.028;32.372;2022-08-04T04:52:04;99242.75;;;29.58;71.66
12897;BME280;6516;35.028;32.372;2022-08-04T04:54:38;99230.34;;;29.71;69.96
12897;BME280;6516;35.028;32.372;2022-08-04T04:57:13;99242.03;;;29.96;68.83
12897;BME280;6516;35.028;32.372;2022-08-04T04:59:47;99238.22;;;30.45;67.17
12897;BME280;6516;35.028;32.372;2022-08-04T05:02:40;99245.78;;;31.12;65.51
12897;BME280;6516;35.028;32.372;2022-08-04T05:05:36;99243.31;;;31.78;62.55
12897;BME280;6516;35.028;32.372;2022-08-04T05:08:39;99239.91;;;32.13;60.52
12897;BME280;6516;35.028;32.372;2022-08-04T05:11:32;99242.34;;;32.30;59.68
12897;BME280;6516;35.028;32.372;2022-08-04T05:14:26;99245.91;;;32.60;58.52
12897;BME280;6516;35.028;32.372;2022-08-04T05:17:02;99253.16;;;32.82;58.20
12897;BME280;6516;35.028;32.372;2022-08-04T05:19:42;99251.69;;;33.15;56.87
12897;BME280;6516;35.028;32.372;2022-08-04T05:22:21;99254.97;;;33.25;57.14
12897;BME280;6516;35.028;32.372;2022-08-04T05:25:00;99255.16;;;33.38;56.06
12897;BME280;6516;35.028;32.372;2022-08-04T05:27:36;99254.16;;;33.45;55.43
12897;BME280;6516;35.028;32.372;2022-08-04T05:30:07;99255.00;;;33.67;55.24
12897;BME280;6516;35.028;32.372;2022-08-04T05:32:44;99261.28;;;33.61;55.54
12897;BME280;6516;35.028;32.372;2022-08-04T05:35:21;99255.81;;;33.82;54.83
12897;BME280;6516;35.028;32.372;2022-08-04T05:37:57;99255.50;;;33.92;53.81
12897;BME280;6516;35.028;32.372;2022-08-04T05:40:29;99262.00;;;34.18;53.42
12897;BME280;6516;35.028;32.372;2022-08-04T05:42:57;99255.56;;;34.26;53.02
12897;BME280;6516;35.028;32.372;2022-08-04T05:45:26;99259.75;;;34.22;52.95
12897;BME280;6516;35.028;32.372;2022-08-04T05:47:55;99253.03;;;34.24;52.71
12897;BME280;6516;35.028;32.372;2022-08-04T05:50:24;99260.69;;;34.35;52.69
12897;BME280;6516;35.028;32.372;2022-08-04T05:52:53;99260.06;;;34.12;53.28
12897;BME280;6516;35.028;32.372;2022-08-04T05:55:22;99258.38;;;34.32;53.16
12897;BME280;6516;35.028;32.372;2022-08-04T05:57:53;99269.38;;;34.45;52.91
12897;BME280;6516;35.028;32.372;2022-08-04T06:00:22;99271.63;;;34.63;51.33
12897;BME280;6516;35.028;32.372;2022-08-04T06:02:52;99265.72;;;34.66;51.38
12897;BME280;6516;35.028;32.372;2022-08-04T06:05:21;99262.56;;;34.62;51.35
12897;BME280;6516;35.028;32.372;2022-08-04T06:07:49;99267.16;;;34.89;51.55
12897;BME280;6516;35.028;32.372;2022-08-04T06:10:17;99264.88;;;34.99;50.67
12897;BME280;6516;35.028;32.372;2022-08-04T06:12:51;99262.81;;;35.01;50.71
12897;BME280;6516;35.028;32.372;2022-08-04T06:15:23;99261.94;;;35.01;50.77
12897;BME280;6516;35.028;32.372;2022-08-04T06:17:55;99263.66;;;35.08;50.26
12897;BME280;6516;35.028;32.372;2022-08-04T06:20:27;99262.22;;;35.12;50.71
12897;BME280;6516;35.028;32.372;2022-08-04T06:22:59;99262.38;;;35.04;50.28
12897;BME280;6516;35.028;32.372;2022-08-04T06:25:32;99257.84;;;35.24;50.29
12897;BME280;6516;35.028;32.372;2022-08-04T06:28:06;99267.56;;;35.27;49.86
12897;BME280;6516;35.028;32.372;2022-08-04T06:30:35;99264.13;;;35.12;49.89
12897;BME280;6516;35.028;32.372;2022-08-04T06:33:03;99272.50;;;35.04;50.48
12897;BME280;6516;35.028;32.372;2022-08-04T06:35:48;99257.88;;;34.84;50.52
12897;BME280;6516;35.028;32.372;2022-08-04T06:38:19;99262.59;;;34.69;51.41
12897;BME280;6516;35.028;32.372;2022-08-04T06:40:48;99265.00;;;34.51;51.83
12897;BME280;6516;35.028;32.372;2022-08-04T06:43:19;99275.66;;;34.39;51.29
12897;BME280;6516;35.028;32.372;2022-08-04T06:45:47;99275.53;;;34.47;51.96
12897;BME280;6516;35.028;32.372;2022-08-04T06:48:17;99274.66;;;34.47;52.15
12897;BME280;6516;35.028;32.372;2022-08-04T06:50:48;99266.66;;;34.45;51.93
12897;BME280;6516;35.028;32.372;2022-08-04T06:53:18;99273.59;;;34.48;51.80
12897;BME280;6516;35.028;32.372;2022-08-04T06:55:47;99282.38;;;34.64;51.71
12897;BME280;6516;35.028;32.372;2022-08-04T06:58:18;99281.88;;;34.82;52.20
12897;BME280;6516;35.028;32.372;2022-08-04T07:00:47;99274.97;;;34.92;51.25
12897;BME280;6516;35.028;32.372;2022-08-04T07:03:17;99275.38;;;34.89;51.34
12897;BME280;6516;35.028;32.372;2022-08-04T07:05:47;99279.84;;;35.03;50.99
12897;BME280;6516;35.028;32.372;2022-08-04T07:08:15;99284.09;;;35.12;50.34
12897;BME280;6516;35.028;32.372;2022-08-04T07:10:44;99293.59;;;35.16;50.95
12897;BME280;6516;35.028;32.372;2022-08-04T07:13:12;99289.91;;;35.30;50.51
12897;BME280;6516;35.028;32.372;2022-08-04T07:15:44;99292.91;;;35.48;48.91
12897;BME280;6516;35.028;32.372;2022-08-04T07:18:12;99299.66;;;35.46;48.78
12897;BME280;6516;35.028;32.372;2022-08-04T07:20:41;99297.81;;;35.59;49.09
12897;BME280;6516;35.028;32.372;2022-08-04T07:23:10;99293.16;;;35.66;48.76
12897;BME280;6516;35.028;32.372;2022-08-04T07:25:42;99295.31;;;35.84;48.20
12897;BME280;6516;35.028;32.372;2022-08-04T07:28:12;99295.56;;;36.15;47.15
12897;BME280;6516;35.028;32.372;2022-08-04T07:30:44;99298.34;;;36.21;47.35
12897;BME280;6516;35.028;32.372;2022-08-04T07:33:14;99306.78;;;36.26;46.99
12897;BME280;6516;35.028;32.372;2022-08-04T07:35:43;99306.16;;;36.50;47.04
12897;BME280;6516;35.028;32.372;2022-08-04T07:38:12;99304.84;;;36.72;46.36
12897;BME280;6516;35.028;32.372;2022-08-04T07:40:40;99307.84;;;36.77;46.50
12897;BME280;6516;35.028;32.372;2022-08-04T07:43:09;99313.72;;;36.87;47.01
12897;BME280;6516;35.028;32.372;2022-08-04T07:45:37;99317.09;;;36.76;45.91
12897;BME280;6516;35.028;32.372;2022-08-04T07:48:08;99310.97;;;36.87;46.23
12897;BME280;6516;35.028;32.372;2022-08-04T07:50:36;99317.91;;;37.03;45.71
12897;BME280;6516;35.028;32.372;2022-08-04T07:53:05;99311.13;;;37.05;45.71
12897;BME280;6516;35.028;32.372;2022-08-04T07:55:33;99307.31;;;37.19;45.94
12897;BME280;6516;35.028;32.372;2022-08-04T07:58:01;99306.22;;;37.20;45.86
12897;BME280;6516;35.028;32.372;2022-08-04T08:00:29;99305.19;;;37.15;44.38
12897;BME280;6516;35.028;32.372;2022-08-04T08:02:57;99316.66;;;36.92;46.19
12897;BME280;6516;35.028;32.372;2022-08-04T08:05:27;99319.84;;;36.83;45.28
12897;BME280;6516;35.028;32.372;2022-08-04T08:07:55;99317.03;;;37.09;45.44
12897;BME280;6516;35.028;32.372;2022-08-04T08:10:23;99311.13;;;37.18;44.57
12897;BME280;6516;35.028;32.372;2022-08-04T08:12:52;99311.91;;;37.25;45.52
12897;BME280;6516;35.028;32.372;2022-08-04T08:15:21;99323.63;;;37.58;44.77
12897;BME280;6516;35.028;32.372;2022-08-04T08:17:50;99321.78;;;37.83;44.15
12897;BME280;6516;35.028;32.372;2022-08-04T08:20:18;99320.13;;;37.82;43.85
12897;BME280;6516;35.028;32.372;2022-08-04T08:22:48;99319.28;;;37.75;43.68
12897;BME280;6516;35.028;32.372;2022-08-04T08:25:16;99322.16;;;37.49;44.11
12897;BME280;6516;35.028;32.372;2022-08-04T08:27:44;99316.44;;;37.51;44.64
12897;BME280;6516;35.028;32.372;2022-08-04T08:30:12;99320.22;;;37.63;45.20
12897;BME280;6516;35.028;32.372;2022-08-04T08:32:41;99312.88;;;37.57;44.71
12897;BME280;6516;35.028;32.372;2022-08-04T08:35:10;99318.19;;;37.45;45.19
12897;BME280;6516;35.028;32.372;2022-08-04T08:37:41;99318.69;;;37.73;44.37
12897;BME280;6516;35.028;32.372;2022-08-04T08:40:30;99323.22;;;37.48;45.42
12897;BME280;6516;35.028;32.372;2022-08-04T08:43:22;99321.47;;;37.67;44.63
12897;BME280;6516;35.028;32.372;2022-08-04T08:46:22;99318.97;;;37.96;44.27
12897;BME280;6516;35.028;32.372;2022-08-04T08:52:20;99322.13;;;37.93;43.96
12897;BME280;6516;35.028;32.372;2022-08-04T08:55:05;99321.59;;;38.16;43.35
12897;BME280;6516;35.028;32.372;2022-08-04T08:58:06;99315.34;;;37.96;43.75
12897;BME280;6516;35.028;32.372;2022-08-04T09:01:07;99315.34;;;38.02;43.84
12897;BME280;6516;35.028;32.372;2022-08-04T09:04:08;99320.91;;;38.20;43.34
12897;BME280;6516;35.028;32.372;2022-08-04T09:07:05;99311.38;;;38.23;43.73
12897;BME280;6516;35.028;32.372;2022-08-04T09:09:50;99321.59;;;38.40;43.22
12897;BME280;6516;35.028;32.372;2022-08-04T09:12:29;99327.47;;;38.50;42.97
12897;BME280;6516;35.028;32.372;2022-08-04T09:15:10;99323.53;;;38.64;42.57
12897;BME280;6516;35.028;32.372;2022-08-04T09:17:46;99322.81;;;38.69;42.78
12897;BME280;6516;35.028;32.372;2022-08-04T09:20:28;99334.09;;;38.85;42.78
12897;BME280;6516;35.028;32.372;2022-08-04T09:23:06;99331.97;;;38.87;41.46
12897;BME280;6516;35.028;32.372;2022-08-04T09:25:43;99333.47;;;39.08;40.44
12897;BME280;6516;35.028;32.372;2022-08-04T09:28:21;99332.16;;;38.92;40.58
12897;BME280;6516;35.028;32.372;2022-08-04T09:30:56;99330.94;;;38.64;40.54
12897;BME280;6516;35.028;32.372;2022-08-04T09:33:37;99329.38;;;38.50;40.95
12897;BME280;6516;35.028;32.372;2022-08-04T09:36:18;99330.16;;;38.57;40.89
12897;BME280;6516;35.028;32.372;2022-08-04T09:39:05;99343.03;;;38.32;41.41
12897;BME280;6516;35.028;32.372;2022-08-04T09:41:47;99329.34;;;38.25;41.93
12897;BME280;6516;35.028;32.372;2022-08-04T09:44:27;99325.25;;;38.34;41.32
12897;BME280;6516;35.028;32.372;2022-08-04T09:47:21;99323.47;;;38.46;41.36
12897;BME280;6516;35.028;32.372;2022-08-04T09:49:57;99320.09;;;38.20;41.73
12897;BME280;6516;35.028;32.372;2022-08-04T09:52:40;99316.75;;;37.74;42.42
12897;BME280;6516;35.028;32.372;2022-08-04T09:55:19;99311.31;;;37.67;42.55
12897;BME280;6516;35.028;32.372;2022-08-04T09:58:03;99307.84;;;37.34;43.25
12897;BME280;6516;35.028;32.372;2022-08-04T10:00:45;99305.09;;;37.41;43.61
12897;BME280;6516;35.028;32.372;2022-08-04T10:03:18;99298.72;;;37.40;43.66
12897;BME280;6516;35.028;32.372;2022-08-04T10:05:59;99305.38;;;37.20;43.82
12897;BME280;6516;35.028;32.372;2022-08-04T10:08:49;99297.09;;;37.26;43.84
12897;BME280;6516;35.028;32.372;2022-08-04T10:11:32;99293.06;;;37.35;43.70
12897;BME280;6516;35.028;32.372;2022-08-04T10:14:16;99297.06;;;37.39;43.22
12897;BME280;6516;35.028;32.372;2022-08-04T10:16:56;99299.56;;;37.47;42.97
12897;BME280;6516;35.028;32.372;2022-08-04T10:19:34;99297.84;;;37.53;42.62
12897;BME280;6516;35.028;32.372;2022-08-04T10:22:12;99305.88;;;37.54;43.18
12897;BME280;6516;35.028;32.372;2022-08-04T10:24:55;99302.47;;;37.52;42.65
12897;BME280;6516;35.028;32.372;2022-08-04T10:27:33;99307.72;;;37.10;44.33
12897;BME280;6516;35.028;32.372;2022-08-04T10:30:07;99306.13;;;37.46;43.89
12897;BME280;6516;35.028;32.372;2022-08-04T10:32:44;99302.91;;;37.49;43.50
12897;BME280;6516;35.028;32.372;2022-08-04T10:35:26;99303.13;;;37.61;43.01
12897;BME280;6516;35.028;32.372;2022-08-04T10:38:03;99297.34;;;37.69;42.72
12897;BME280;6516;35.028;32.372;2022-08-04T10:40:42;99289.00;;;37.44;43.04
12897;BME280;6516;35.028;32.372;2022-08-04T10:43:21;99298.69;;;37.47;42.91
12897;BME280;6516;35.028;32.372;2022-08-04T10:45:58;99290.06;;;37.43;42.94
12897;BME280;6516;35.028;32.372;2022-08-04T10:48:37;99294.94;;;37.41;43.19
12897;BME280;6516;35.028;32.372;2022-08-04T10:51:19;99294.59;;;37.25;43.42
12897;BME280;6516;35.028;32.372;2022-08-04T10:53:56;99287.50;;;36.91;44.33
12897;BME280;6516;35.028;32.372;2022-08-04T10:56:34;99287.66;;;37.09;43.67
12897;BME280;6516;35.028;32.372;2022-08-04T10:59:10;99289.19;;;36.92;44.51
12897;BME280;6516;35.028;32.372;2022-08-04T11:01:44;99290.50;;;36.57;45.16
12897;BME280;6516;35.028;32.372;2022-08-04T11:04:20;99283.97;;;36.71;44.22
12897;BME280;6516;35.028;32.372;2022-08-04T11:06:54;99281.84;;;36.60;44.15
12897;BME280;6516;35.028;32.372;2022-08-04T11:09:23;99288.41;;;36.59;44.78
12897;BME280;6516;35.028;32.372;2022-08-04T11:11:54;99292.66;;;36.36;45.60
12897;BME280;6516;35.028;32.372;2022-08-04T11:14:30;99289.63;;;36.63;45.01
12897;BME280;6516;35.028;32.372;2022-08-04T11:17:04;99283.13;;;36.51;45.31
12897;BME280;6516;35.028;32.372;2022-08-04T11:19:40;99292.22;;;36.45;44.91
12897;BME280;6516;35.028;32.372;2022-08-04T11:22:23;99293.50;;;36.36;45.07
12897;BME280;6516;35.028;32.372;2022-08-04T11:24:57;99288.03;;;36.36;45.54
12897;BME280;6516;35.028;32.372;2022-08-04T11:27:38;99285.47;;;36.41;44.97
12897;BME280;6516;35.028;32.372;2022-08-04T11:30:12;99291.56;;;36.17;46.11
12897;BME280;6516;35.028;32.372;2022-08-04T11:32:45;99287.34;;;36.08;45.41
12897;BME280;6516;35.028;32.372;2022-08-04T11:35:23;99283.56;;;35.96;46.01
12897;BME280;6516;35.028;32.372;2022-08-04T11:38:05;99289.44;;;35.87;46.24
12897;BME280;6516;35.028;32.372;2022-08-04T11:40:40;99290.31;;;35.94;46.18
12897;BME280;6516;35.028;32.372;2022-08-04T11:43:12;99284.81;;;36.00;45.19
12897;BME280;6516;35.028;32.372;2022-08-04T11:45:52;99279.75;;;36.17;45.45
12897;BME280;6516;35.028;32.372;2022-08-04T11:48:25;99274.53;;;36.22;45.00
12897;BME280;6516;35.028;32.372;2022-08-04T11:50:59;99273.25;;;36.24;45.61
12897;BME280;6516;35.028;32.372;2022-08-04T11:53:34;99284.63;;;36.28;44.91
12897;BME280;6516;35.028;32.372;2022-08-04T11:56:06;99276.63;;;36.26;44.99
12897;BME280;6516;35.028;32.372;2022-08-04T11:58:39;99280.81;;;35.96;45.92
12897;BME280;6516;35.028;32.372;2022-08-04T12:01:12;99279.75;;;36.04;45.89
12897;BME280;6516;35.028;32.372;2022-08-04T12:03:52;99278.91;;;36.10;45.58
12897;BME280;6516;35.028;32.372;2022-08-04T12:06:32;99273.00;;;36.06;45.15
12897;BME280;6516;35.028;32.372;2022-08-04T12:09:19;99277.41;;;35.75;46.34
12897;BME280;6516;35.028;32.372;2022-08-04T12:12:01;99268.59;;;35.92;46.38
12897;BME280;6516;35.028;32.372;2022-08-04T12:14:42;99265.19;;;35.84;46.05
12897;BME280;6516;35.028;32.372;2022-08-04T12:17:24;99260.44;;;35.45;46.75
12897;BME280;6516;35.028;32.372;2022-08-04T12:19:56;99264.25;;;35.51;46.76
12897;BME280;6516;35.028;32.372;2022-08-04T12:22:31;99260.94;;;35.62;46.93
12897;BME280;6516;35.028;32.372;2022-08-04T12:25:05;99255.22;;;35.63;46.89
12897;BME280;6516;35.028;32.372;2022-08-04T12:27:39;99259.63;;;35.45;46.50
12897;BME280;6516;35.028;32.372;2022-08-04T12:30:11;99260.66;;;35.37;46.88
12897;BME280;6516;35.028;32.372;2022-08-04T12:32:41;99257.25;;;35.35;47.09
12897;BME280;6516;35.028;32.372;2022-08-04T12:35:19;99254.53;;;35.42;46.35
12897;BME280;6516;35.028;32.372;2022-08-04T12:37:53;99251.78;;;35.35;46.71
12897;BME280;6516;35.028;32.372;2022-08-04T12:40:32;99252.44;;;35.37;47.02
12897;BME280;6516;35.028;32.372;2022-08-04T12:43:09;99239.16;;;35.34;47.25
12897;BME280;6516;35.028;32.372;2022-08-04T12:45:46;99253.69;;;35.28;47.32
12897;BME280;6516;35.028;32.372;2022-08-04T12:48:16;99244.97;;;35.25;46.88
12897;BME280;6516;35.028;32.372;2022-08-04T12:50:47;99245.72;;;34.99;48.18
12897;BME280;6516;35.028;32.372;2022-08-04T12:53:17;99241.53;;;35.03;47.50
12897;BME280;6516;35.028;32.372;2022-08-04T12:55:49;99243.94;;;35.26;47.89
12897;BME280;6516;35.028;32.372;2022-08-04T12:58:20;99243.72;;;35.21;46.84
12897;BME280;6516;35.028;32.372;2022-08-04T13:00:55;99240.56;;;35.24;47.43
12897;BME280;6516;35.028;32.372;2022-08-04T13:03:28;99249.47;;;35.45;46.54
12897;BME280;6516;35.028;32.372;2022-08-04T13:06:03;99246.75;;;35.45;46.64
12897;BME280;6516;35.028;32.372;2022-08-04T13:08:35;99249.06;;;35.42;47.13
12897;BME280;6516;35.028;32.372;2022-08-04T13:11:07;99238.78;;;35.50;46.87
12897;BME280;6516;35.028;32.372;2022-08-04T13:13:37;99245.25;;;35.36;46.67
12897;BME280;6516;35.028;32.372;2022-08-04T13:16:07;99240.66;;;35.43;46.73
12897;BME280;6516;35.028;32.372;2022-08-04T13:18:38;99236.44;;;35.41;46.46
12897;BME280;6516;35.028;32.372;2022-08-04T13:21:09;99244.00;;;35.45;46.61
12897;BME280;6516;35.028;32.372;2022-08-04T13:23:40;99250.13;;;35.41;46.70
12897;BME280;6516;35.028;32.372;2022-08-04T13:26:13;99255.69;;;35.13;47.36
12897;BME280;6516;35.028;32.372;2022-08-04T13:28:42;99249.34;;;35.06;47.54
12897;BME280;6516;35.028;32.372;2022-08-04T13:31:15;99251.19;;;34.99;47.39
12897;BME280;6516;35.028;32.372;2022-08-04T13:33:46;99245.16;;;34.76;48.38
12897;BME280;6516;35.028;32.372;2022-08-04T13:36:16;99244.41;;;34.82;48.37
12897;BME280;6516;35.028;32.372;2022-08-04T13:38:48;99247.28;;;34.74;48.42
12897;BME280;6516;35.028;32.372;2022-08-04T13:41:20;99250.00;;;34.74;48.97
12897;BME280;6516;35.028;32.372;2022-08-04T13:43:51;99242.44;;;34.76;48.12
12897;BME280;6516;35.028;32.372;2022-08-04T13:46:24;99243.78;;;34.25;49.89
12897;BME280;6516;35.028;32.372;2022-08-04T13:48:53;99244.47;;;34.06;50.82
12897;BME280;6516;35.028;32.372;2022-08-04T13:51:22;99235.66;;;34.11;50.30
12897;BME280;6516;35.028;32.372;2022-08-04T13:53:55;99249.97;;;33.64;51.80
12897;BME280;6516;35.028;32.372;2022-08-04T13:56:30;99247.66;;;33.46;52.05
12897;BME280;6516;35.028;32.372;2022-08-04T13:59:02;99246.53;;;33.41;52.44
12897;BME280;6516;35.028;32.372;2022-08-04T14:01:33;99250.59;;;33.45;52.39
12897;BME280;6516;35.028;32.372;2022-08-04T14:04:04;99254.59;;;33.28;52.80
12897;BME280;6516;35.028;32.372;2022-08-04T14:06:44;99248.19;;;33.21;53.03
12897;BME280;6516;35.028;32.372;2022-08-04T14:09:18;99244.09;;;33.46;52.74
12897;BME280;6516;35.028;32.372;2022-08-04T14:11:49;99247.91;;;33.51;52.28
12897;BME280;6516;35.028;32.372;2022-08-04T14:14:21;99243.44;;;33.44;52.31
12897;BME280;6516;35.028;32.372;2022-08-04T14:17:02;99245.53;;;33.42;52.35
12897;BME280;6516;35.028;32.372;2022-08-04T14:19:52;99242.53;;;33.37;52.61
12897;BME280;6516;35.028;32.372;2022-08-04T14:22:30;99237.66;;;33.18;53.33